Aeroporto :
LOGIN :

Iscrizione | Disclaimer

   EN    FR    IT 

 










Sommario :    VFR   VFR Marginale   IFR   IFR Intensivo   IFR Molto Intensivo
Visibilità : 
Base nubi : 
>= 8 km
>= 3000ft
5 / 8 km
1000 / 3000 ft
1500m / 5 km
500 / 1000 ft
800 / 1500m
200 / 500 ft
< 800m
< 200 ft
Simboli :   Temporali  Nebbia  Neve Forte  Precipitazioni Forti  Vento > 20 kt
SIGMETs :   Varie  Temporali  Ghiacco  Turbolenza  Onda orograficha  Ceneri Vulcaniche






- Altitudine del aeroporto : 76 ft
- Codice IATA : KID


ESMK - Kristianstad

ULTIMO METAR :
  • 290620Z AUTO 01015KT 9999 FEW061/// BKN082/// OVC098/// M00/M04 Q1027

METARs OBSOLETI :
  • 290550Z AUTO 01015KT 9999 BKN061/// OVC078/// 00/M04 Q1026
  • 290520Z AUTO 01013KT 9999 BKN061/// OVC082/// 00/M03 Q1026
  • 290450Z AUTO 02014KT 9999 OVC057/// 00/M03 Q1025
  • 290420Z AUTO 01012KT 9999 FEW037/// OVC051/// 00/M02 Q1025
  • 290350Z AUTO 03011KT 4400 -SN SCT018/// BKN036/// OVC064/// 00/M00 Q1025

Previsioni scadute.



MetMap, La meteo Aeronautica in un colpo d'occhio ! - Copyright ORBIFLY Dicembre 2007 - Disclaimer

ORBIFLY MET'MAP TEAM :

Programmazione e sviluppo : Alexandra Zaïnal
Concezione : Baudouin d'Aumeries
Aiuto per la programmazione : Marc-Olivier Méhu
Supporto tecnico e logistico : Manuel Goepfert
Aiuto per la traduzione : Arnaldo La Scala

Contatto : metmap@orbifly.com




FONTI E CREDITI :

   NOAA